Time;durP1;ratioP1;P1;durP2;ratioP2;P2;SDS_P1;SDS_P2;PMS_P1;PMS_P2;Temp;Humidity;BMP_temperature;BMP_pressure;BME280_temperature;BME280_humidity;BME280_pressure;Samples;Min_cycle;Max_cycle;Signal;HPM_P1;HPM_P2
2022/07/20 00:01:38;;;;;;;4.00;3.60;;;22.40;74.10;;;;;;6276864;28;20232;-63
2022/07/20 00:04:41;;;;;;;3.57;3.27;;;22.30;74.20;;;;;;6276471;28;20232;-63
2022/07/20 00:07:45;;;;;;;3.00;2.70;;;22.30;74.40;;;;;;6276658;28;20314;-63
2022/07/20 00:14:10;;;;;;;3.80;3.43;;;22.20;74.60;;;;;;6276193;28;20223;-65
2022/07/20 00:17:13;;;;;;;3.80;2.60;;;22.20;75.10;;;;;;6276032;28;20234;-64
2022/07/20 00:20:16;;;;;;;4.17;3.53;;;22.20;75.20;;;;;;6275634;28;20228;-64
2022/07/20 00:23:20;;;;;;;3.57;3.37;;;22.10;75.50;;;;;;6271125;28;20232;-63
2022/07/20 00:26:24;;;;;;;4.10;3.30;;;22.10;75.40;;;;;;6275851;28;20239;-63
2022/07/20 00:29:27;;;;;;;3.87;3.57;;;22.10;75.50;;;;;;6275593;28;20670;-63
2022/07/20 00:32:31;;;;;;;3.87;3.50;;;22.00;75.80;;;;;;6275860;28;20234;-64
2022/07/20 00:35:34;;;;;;;4.40;4.00;;;22.00;76.00;;;;;;6275638;28;20223;-64
2022/07/20 00:38:37;;;;;;;4.07;3.43;;;21.90;76.40;;;;;;6275853;28;20242;-64
2022/07/20 00:41:41;;;;;;;3.70;3.40;;;21.90;76.50;;;;;;6275212;28;20570;-64
2022/07/20 00:44:45;;;;;;;3.40;3.10;;;21.90;76.50;;;;;;6275621;28;20242;-64
2022/07/20 00:47:48;;;;;;;3.67;2.97;;;21.80;76.90;;;;;;6275195;28;20224;-64
2022/07/20 00:50:51;;;;;;;3.97;3.63;;;21.70;77.00;;;;;;6275032;28;20227;-64
2022/07/20 00:53:55;;;;;;;4.40;3.33;;;21.70;77.60;;;;;;6275126;28;20555;-65
2022/07/20 00:56:59;;;;;;;3.73;3.43;;;21.70;77.90;;;;;;6275331;28;20532;-64
2022/07/20 01:00:04;;;;;;;3.80;3.50;;;21.60;77.70;;;;;;6274963;28;20227;-64
2022/07/20 01:03:08;;;;;;;3.30;3.00;;;21.60;78.20;;;;;;6275350;28;20234;-64
2022/07/20 01:06:12;;;;;;;3.97;3.57;;;21.50;78.00;;;;;;6274969;28;20662;-63
2022/07/20 01:09:16;;;;;;;3.57;3.27;;;21.50;79.20;;;;;;6274996;28;20245;-63
2022/07/20 01:12:21;;;;;;;3.80;3.03;;;21.50;78.60;;;;;;6274556;28;20228;-63
2022/07/20 01:15:25;;;;;;;3.67;3.37;;;21.40;78.70;;;;;;6275003;28;20231;-63
2022/07/20 01:18:29;;;;;;;4.27;3.73;;;21.40;79.30;;;;;;6274183;28;20250;-64
2022/07/20 01:21:39;;;;;;;3.80;3.50;;;21.40;79.70;;;;;;6275084;28;20227;-63
2022/07/20 01:24:42;;;;;;;4.40;3.30;;;21.40;79.50;;;;;;6274466;28;20561;-63
2022/07/20 01:27:46;;;;;;;4.00;3.60;;;21.30;79.80;;;;;;6265268;28;20674;-63
2022/07/20 01:30:49;;;;;;;3.60;3.30;;;21.20;79.80;;;;;;6274309;28;20246;-66
2022/07/20 01:33:52;;;;;;;3.80;3.20;;;21.20;80.00;;;;;;6273798;28;20219;-63
2022/07/20 01:36:56;;;;;;;3.60;3.30;;;21.20;80.50;;;;;;6273830;28;20712;-63
2022/07/20 01:39:59;;;;;;;3.13;2.80;;;21.20;80.40;;;;;;6273848;28;20216;-63
2022/07/20 01:43:03;;;;;;;3.67;3.37;;;21.10;80.20;;;;;;6274677;28;20207;-63
2022/07/20 01:46:06;;;;;;;3.53;3.23;;;21.00;80.60;;;;;;6274482;28;20677;-63
2022/07/20 01:49:09;;;;;;;3.20;2.90;;;21.00;80.70;;;;;;6274456;28;20224;-63
2022/07/20 01:52:14;;;;;;;3.17;2.93;;;21.00;80.80;;;;;;6274318;28;20215;-63
2022/07/20 01:55:17;;;;;;;4.80;3.73;;;21.00;80.70;;;;;;6274629;28;20235;-63
2022/07/20 01:58:20;;;;;;;3.30;3.00;;;21.00;81.00;;;;;;6274109;28;20238;-62
2022/07/20 02:01:24;;;;;;;5.87;3.43;;;21.00;81.00;;;;;;6274200;28;20708;-62
2022/07/20 02:04:27;;;;;;;3.80;3.07;;;21.00;81.30;;;;;;6274169;28;20850;-66
2022/07/20 02:07:32;;;;;;;3.80;3.50;;;20.90;81.50;;;;;;6276885;28;20243;-67
2022/07/20 02:10:35;;;;;;;4.73;3.20;;;20.90;81.90;;;;;;6279425;28;20246;-66
2022/07/20 02:13:39;;;;;;;3.63;3.33;;;21.00;82.20;;;;;;6279399;28;20231;-65
2022/07/20 02:16:42;;;;;;;3.47;3.20;;;21.00;82.20;;;;;;6278939;28;20227;-64
2022/07/20 02:19:45;;;;;;;3.63;3.30;;;21.00;82.30;;;;;;6278482;28;20232;-64
2022/07/20 02:22:50;;;;;;;4.13;3.47;;;20.90;82.50;;;;;;6279053;28;20227;-65
2022/07/20 02:25:53;;;;;;;5.20;3.67;;;20.90;82.40;;;;;;6278366;28;20688;-65
2022/07/20 02:28:56;;;;;;;3.50;3.20;;;20.80;82.50;;;;;;6278816;28;20681;-64
2022/07/20 02:31:59;;;;;;;4.03;3.30;;;20.70;82.80;;;;;;6278424;28;20235;-64
2022/07/20 02:35:02;;;;;;;4.03;3.60;;;20.70;83.00;;;;;;6278403;28;20595;-65
2022/07/20 02:38:07;;;;;;;3.43;3.23;;;20.60;83.40;;;;;;6278318;28;20243;-65
2022/07/20 02:41:10;;;;;;;4.63;3.30;;;20.50;83.60;;;;;;6278412;28;20232;-64
2022/07/20 02:44:13;;;;;;;4.63;3.37;;;20.50;84.10;;;;;;6278254;28;20273;-64
2022/07/20 02:47:17;;;;;;;3.60;3.30;;;20.30;84.40;;;;;;6278409;28;20242;-64
2022/07/20 02:50:20;;;;;;;4.00;3.30;;;20.30;85.00;;;;;;6277998;28;20286;-63
2022/07/20 02:53:24;;;;;;;6.10;3.70;;;20.20;85.30;;;;;;6278306;28;20274;-63
2022/07/20 02:56:28;;;;;;;4.27;3.87;;;20.20;85.40;;;;;;6277728;28;20228;-63
2022/07/20 02:59:31;;;;;;;4.63;3.40;;;20.30;85.50;;;;;;6277745;28;20231;-63
2022/07/20 03:02:34;;;;;;;5.20;2.90;;;20.30;85.50;;;;;;6277591;28;20224;-62
2022/07/20 03:05:37;;;;;;;3.23;3.00;;;20.30;85.50;;;;;;6277983;28;20247;-64
2022/07/20 03:08:42;;;;;;;3.97;3.67;;;20.20;85.40;;;;;;6277841;28;20798;-64
2022/07/20 03:11:45;;;;;;;3.80;3.50;;;20.20;86.00;;;;;;6277395;28;20232;-64
2022/07/20 03:14:48;;;;;;;3.97;3.67;;;20.10;86.50;;;;;;6277627;28;20678;-64
2022/07/20 03:17:53;;;;;;;3.50;3.30;;;20.10;87.10;;;;;;6276406;28;20662;-64
2022/07/20 03:20:56;;;;;;;3.80;3.50;;;20.10;87.50;;;;;;6277110;28;20236;-64
2022/07/20 03:24:01;;;;;;;3.80;3.33;;;20.10;87.60;;;;;;6277521;28;20232;-64
2022/07/20 03:27:04;;;;;;;3.13;2.87;;;20.10;88.00;;;;;;6277346;28;20223;-64
2022/07/20 03:30:09;;;;;;;4.23;3.93;;;20.10;88.20;;;;;;6277137;28;20232;-64
2022/07/20 03:33:12;;;;;;;5.13;4.53;;;20.10;88.30;;;;;;6276902;28;20223;-64
2022/07/20 03:36:15;;;;;;;3.73;3.43;;;20.10;88.60;;;;;;6276923;28;20232;-64
2022/07/20 03:39:19;;;;;;;4.47;3.80;;;20.10;88.80;;;;;;6276579;28;20658;-64
2022/07/20 03:42:23;;;;;;;3.40;3.10;;;20.10;88.90;;;;;;6276395;28;20686;-64
2022/07/20 03:45:26;;;;;;;3.63;3.33;;;20.20;88.90;;;;;;6276860;28;20232;-64
2022/07/20 03:48:30;;;;;;;4.80;3.90;;;20.20;88.50;;;;;;6276535;28;20306;-64
2022/07/20 03:51:33;;;;;;;3.63;3.33;;;20.20;88.40;;;;;;6276502;28;20549;-64
2022/07/20 03:54:38;;;;;;;4.30;4.00;;;20.20;88.40;;;;;;6276570;28;20270;-64
2022/07/20 03:57:41;;;;;;;3.60;3.33;;;20.20;88.40;;;;;;6276494;28;20297;-64
2022/07/20 04:00:45;;;;;;;3.80;3.50;;;20.20;88.50;;;;;;6276581;28;20243;-63
2022/07/20 04:03:48;;;;;;;4.03;3.73;;;20.20;88.60;;;;;;6276341;28;20232;-62
2022/07/20 04:06:51;;;;;;;4.13;3.67;;;20.20;88.30;;;;;;6276180;28;20224;-62
2022/07/20 04:09:55;;;;;;;4.40;4.03;;;20.20;88.40;;;;;;6276219;28;20235;-64
2022/07/20 04:12:58;;;;;;;4.93;4.23;;;20.20;88.60;;;;;;6276027;28;20215;-64
2022/07/20 04:16:01;;;;;;;3.83;3.53;;;20.20;88.90;;;;;;6276560;28;20204;-62
2022/07/20 04:19:05;;;;;;;4.17;3.77;;;20.30;88.80;;;;;;6275683;28;20238;-66
2022/07/20 04:22:08;;;;;;;4.53;4.13;;;20.40;88.50;;;;;;6276413;28;20207;-63
2022/07/20 04:25:13;;;;;;;4.60;3.33;;;20.50;88.30;;;;;;6275951;28;20250;-65
2022/07/20 04:28:16;;;;;;;3.90;3.60;;;20.60;87.90;;;;;;6275860;28;20231;-65
2022/07/20 04:31:19;;;;;;;3.60;3.30;;;20.70;87.40;;;;;;6274900;28;20238;-67
2022/07/20 04:34:23;;;;;;;3.93;3.53;;;20.80;87.00;;;;;;6275850;28;20243;-68
2022/07/20 04:37:26;;;;;;;3.80;3.30;;;20.90;86.20;;;;;;6276031;28;20229;-67
2022/07/20 04:40:30;;;;;;;4.00;3.70;;;21.00;86.20;;;;;;6275293;28;20235;-63
2022/07/20 04:43:38;;;;;;;3.93;3.53;;;21.10;85.90;;;;;;6275409;28;20273;-63
2022/07/20 04:46:41;;;;;;;4.40;4.03;;;21.10;85.60;;;;;;6275505;28;20239;-63
2022/07/20 04:49:45;;;;;;;5.20;4.20;;;21.20;85.40;;;;;;6275126;28;20261;-63
2022/07/20 04:52:48;;;;;;;5.20;4.13;;;21.40;85.10;;;;;;6275355;28;20228;-63
2022/07/20 04:55:52;;;;;;;4.40;3.83;;;21.40;84.60;;;;;;6275369;28;20240;-63
2022/07/20 04:58:55;;;;;;;4.73;4.17;;;21.50;84.10;;;;;;6275369;28;20254;-63
2022/07/20 05:01:59;;;;;;;4.50;4.10;;;21.60;84.50;;;;;;6274983;28;20250;-63
2022/07/20 05:05:02;;;;;;;4.60;4.20;;;21.80;83.60;;;;;;6275013;28;20223;-62
2022/07/20 05:08:05;;;;;;;4.80;4.40;;;22.00;83.30;;;;;;6274581;28;20236;-63
2022/07/20 05:11:10;;;;;;;9.60;5.43;;;22.20;82.70;;;;;;6274721;28;20236;-63
2022/07/20 05:14:14;;;;;;;4.50;4.13;;;22.40;82.30;;;;;;6274668;28;20232;-63
2022/07/20 05:17:17;;;;;;;4.90;4.50;;;22.60;81.90;;;;;;6274674;28;20220;-63
2022/07/20 05:20:20;;;;;;;5.80;5.30;;;22.70;81.80;;;;;;6274288;28;20558;-64
2022/07/20 05:23:23;;;;;;;5.30;4.80;;;22.90;81.30;;;;;;6274740;28;20239;-63
2022/07/20 05:26:30;;;;;;;7.30;4.90;;;23.10;81.70;;;;;;6274586;28;20280;-64
2022/07/20 05:29:33;;;;;;;6.37;5.20;;;23.20;80.60;;;;;;6274284;28;20242;-63
2022/07/20 05:32:36;;;;;;;10.20;5.33;;;23.30;80.20;;;;;;6274775;28;20239;-63
2022/07/20 05:35:40;;;;;;;6.30;4.53;;;23.50;79.90;;;;;;6269761;28;20238;-63
2022/07/20 05:38:43;;;;;;;6.10;5.60;;;23.60;79.50;;;;;;6274174;28;20632;-63
2022/07/20 05:41:48;;;;;;;4.90;4.50;;;23.60;78.30;;;;;;6275607;28;20223;-63
2022/07/20 05:44:51;;;;;;;6.47;5.87;;;23.70;79.00;;;;;;6279456;28;20224;-63
2022/07/20 05:47:54;;;;;;;6.60;6.10;;;23.90;78.70;;;;;;6279489;28;20281;-64
2022/07/20 05:50:57;;;;;;;6.07;5.57;;;24.00;76.80;;;;;;6278972;28;20228;-64
2022/07/20 05:54:00;;;;;;;7.37;5.87;;;24.10;76.70;;;;;;6279201;28;20306;-63
2022/07/20 05:57:05;;;;;;;7.30;6.30;;;24.20;75.30;;;;;;6278868;28;20228;-64
2022/07/20 06:00:15;;;;;;;5.67;5.27;;;24.40;75.50;;;;;;6278233;28;20685;-64
2022/07/20 06:03:18;;;;;;;5.83;5.20;;;24.60;73.70;;;;;;6278480;28;20693;-64
2022/07/20 06:06:22;;;;;;;6.70;6.00;;;25.00;72.40;;;;;;6278624;28;20677;-63
2022/07/20 06:09:25;;;;;;;7.53;6.10;;;25.50;70.70;;;;;;6278752;28;20245;-63
2022/07/20 06:12:30;;;;;;;11.83;5.60;;;26.00;68.80;;;;;;6279054;28;20300;-63
2022/07/20 06:15:33;;;;;;;6.70;6.00;;;26.50;67.10;;;;;;6278488;28;20231;-67
2022/07/20 06:18:36;;;;;;;6.23;5.57;;;27.10;65.00;;;;;;6277639;28;20237;-67
2022/07/20 06:21:39;;;;;;;6.53;5.47;;;27.50;63.80;;;;;;6277918;28;20227;-67
2022/07/20 06:24:42;;;;;;;8.47;5.67;;;27.90;62.80;;;;;;6278344;28;20238;-67
2022/07/20 06:28:00;;;;;;;6.60;5.87;;;28.50;61.60;;;;;;6278017;28;20223;-67
2022/07/20 06:31:05;;;;;;;5.57;5.17;;;29.20;58.80;;;;;;6278979;28;20196;-67
2022/07/20 06:34:10;;;;;;;5.47;5.07;;;29.80;57.40;;;;;;6278925;28;20199;-69
2022/07/20 06:37:14;;;;;;;6.40;5.90;;;30.60;56.00;;;;;;6269311;28;20294;-68
2022/07/20 06:40:17;;;;;;;6.53;6.03;;;30.80;55.60;;;;;;6278495;28;20529;-68
2022/07/20 06:43:22;;;;;;;5.90;5.40;;;31.40;53.00;;;;;;6278008;28;20526;-68
2022/07/20 06:46:25;;;;;;;5.97;5.57;;;32.10;52.10;;;;;;6277808;28;20231;-68
2022/07/20 06:49:28;;;;;;;5.72;5.13;;;32.70;50.50;;;;;;6278320;28;20553;-68
2022/07/20 06:52:32;;;;;;;6.18;5.03;;;33.20;49.50;;;;;;6277723;28;20231;-68
2022/07/20 06:55:35;;;;;;;5.68;5.18;;;33.80;48.40;;;;;;6277706;28;20227;-68
2022/07/20 06:58:40;;;;;;;6.20;4.95;;;34.00;47.30;;;;;;6277678;28;20231;-69
2022/07/20 07:01:43;;;;;;;10.45;4.80;;;34.60;45.80;;;;;;6277237;28;20231;-69
2022/07/20 07:04:48;;;;;;;5.35;4.93;;;35.10;44.30;;;;;;6277461;28;20233;-68
2022/07/20 07:07:51;;;;;;;6.00;4.57;;;35.50;43.40;;;;;;6277619;28;20710;-67
2022/07/20 07:10:54;;;;;;;5.60;5.10;;;35.90;42.50;;;;;;6278154;28;20230;-68
2022/07/20 07:13:58;;;;;;;6.32;4.03;;;36.40;41.80;;;;;;6279280;28;20227;-69
2022/07/20 07:17:01;;;;;;;5.10;4.53;;;36.80;41.10;;;;;;6286266;28;20231;-69
2022/07/20 07:20:06;;;;;;;5.20;4.43;;;37.40;40.40;;;;;;6283318;28;20235;-69
2022/07/20 07:23:10;;;;;;;9.70;5.25;;;38.20;39.20;;;;;;6280396;28;20242;-69
2022/07/20 07:26:13;;;;;;;5.55;4.78;;;38.70;37.60;;;;;;6278622;28;20231;-69
2022/07/20 07:29:19;;;;;;;5.00;4.50;;;39.30;36.30;;;;;;6278899;28;20231;-70
2022/07/20 07:32:22;;;;;;;5.35;4.85;;;39.90;34.90;;;;;;6278790;28;20234;-70
2022/07/20 07:35:26;;;;;;;5.18;4.32;;;40.50;34.20;;;;;;6280891;28;20223;-70
2022/07/20 07:38:29;;;;;;;3.92;3.63;;;40.90;33.00;;;;;;6279273;28;20227;-69
2022/07/20 07:41:32;;;;;;;5.97;3.75;;;41.50;31.40;;;;;;6268750;28;20249;-69
2022/07/20 07:44:37;;;;;;;6.85;3.83;;;42.20;31.00;;;;;;6277079;28;20684;-69
2022/07/20 07:47:41;;;;;;;4.53;4.10;;;42.60;30.40;;;;;;6276530;28;20289;-69
2022/07/20 07:50:45;;;;;;;5.00;4.60;;;43.10;30.00;;;;;;6276730;28;20692;-69
2022/07/20 07:53:49;;;;;;;4.70;4.22;;;43.70;29.50;;;;;;6277137;28;20230;-69
2022/07/20 07:56:52;;;;;;;5.00;4.43;;;43.70;29.10;;;;;;6279138;28;20233;-68
2022/07/20 07:59:56;;;;;;;4.00;3.70;;;43.50;28.90;;;;;;6277055;28;20216;-69
2022/07/20 08:02:59;;;;;;;4.78;4.00;;;44.10;28.70;;;;;;6275744;28;20735;-68
2022/07/20 08:06:04;;;;;;;3.90;3.50;;;44.60;27.80;;;;;;6275226;28;20223;-68
2022/07/20 08:09:08;;;;;;;5.65;3.72;;;44.70;27.40;;;;;;6275979;28;20223;-68
2022/07/20 08:12:11;;;;;;;4.13;3.83;;;44.50;27.40;;;;;;6275415;28;20568;-68
2022/07/20 08:15:16;;;;;;;6.18;3.67;;;43.90;27.50;;;;;;6274820;28;20219;-68
2022/07/20 08:18:19;;;;;;;4.55;4.15;;;43.40;28.00;;;;;;6275477;28;20231;-67
2022/07/20 08:21:22;;;;;;;5.10;4.70;;;42.40;28.60;;;;;;6275526;28;20231;-68
2022/07/20 08:24:25;;;;;;;3.92;3.40;;;41.30;29.40;;;;;;6275351;28;20689;-67
2022/07/20 08:27:29;;;;;;;4.35;3.47;;;40.30;29.60;;;;;;6274987;28;20242;-67
2022/07/20 08:30:33;;;;;;;3.53;3.00;;;39.40;30.10;;;;;;6275124;28;20649;-67
2022/07/20 08:33:55;;;;;;;4.72;4.28;;;38.30;31.00;;;;;;6275803;28;20317;-69
2022/07/20 08:36:58;;;;;;;4.50;4.10;;;36.60;33.90;;;;;;6280903;28;20602;-68
2022/07/20 08:40:02;;;;;;;5.75;4.43;;;35.80;35.40;;;;;;6283933;28;20532;-67
2022/07/20 08:43:05;;;;;;;5.20;4.13;;;35.50;36.40;;;;;;6288267;28;20207;-67
2022/07/20 08:46:10;;;;;;;5.80;4.35;;;35.10;35.90;;;;;;6297252;28;20628;-67
2022/07/20 08:49:14;;;;;;;4.53;4.13;;;35.00;36.90;;;;;;6274785;28;20217;-67
2022/07/20 08:52:18;;;;;;;5.10;3.97;;;34.70;37.40;;;;;;6273908;28;20538;-67
2022/07/20 08:55:22;;;;;;;5.65;3.85;;;34.50;36.50;;;;;;6275072;28;20223;-67
2022/07/20 08:58:25;;;;;;;4.70;3.88;;;34.30;37.00;;;;;;6274835;28;20297;-69
2022/07/20 09:01:30;;;;;;;6.78;4.35;;;34.10;37.30;;;;;;6275367;28;20230;-67
2022/07/20 09:04:49;;;;;;;5.40;3.97;;;33.70;37.90;;;;;;6274333;28;20231;-70
2022/07/20 09:07:53;;;;;;;4.88;3.72;;;33.60;37.60;;;;;;6273157;28;20254;-68
2022/07/20 09:11:01;;;;;;;3.75;3.35;;;33.20;38.30;;;;;;6274172;28;20230;-67
2022/07/20 09:14:04;;;;;;;4.18;3.78;;;32.90;38.00;;;;;;6275254;28;20223;-67
2022/07/20 09:17:20;;;;;;;4.07;3.78;;;32.60;38.80;;;;;;6274993;28;20309;-67
2022/07/20 09:20:25;;;;;;;3.42;3.13;;;32.50;40.20;;;;;;6273719;28;20236;-67
2022/07/20 09:23:31;;;;;;;3.60;2.97;;;32.70;39.90;;;;;;6274278;28;20693;-67
2022/07/20 09:26:36;;;;;;;3.92;2.90;;;32.80;38.30;;;;;;6274498;28;20572;-69
2022/07/20 09:29:39;;;;;;;3.38;2.33;;;32.90;36.20;;;;;;6273799;28;20575;-67
2022/07/20 09:32:56;;;;;;;2.70;2.50;;;32.80;36.00;;;;;;6274743;28;20560;-67
2022/07/20 09:36:04;;;;;;;3.53;2.30;;;32.70;36.10;;;;;;6274442;28;20537;-69
2022/07/20 09:39:08;;;;;;;5.25;2.63;;;32.70;36.20;;;;;;6274761;28;20227;-67
2022/07/20 09:42:13;;;;;;;3.13;2.30;;;32.60;35.70;;;;;;6274414;28;20321;-67
2022/07/20 09:45:22;;;;;;;4.35;2.78;;;32.60;35.90;;;;;;6274415;28;20684;-68
2022/07/20 09:48:46;;;;;;;2.50;2.30;;;32.60;35.00;;;;;;6269744;28;20333;-69
2022/07/20 09:51:59;;;;;;;2.95;2.22;;;32.50;35.00;;;;;;6274478;28;20249;-69
2022/07/20 09:55:22;;;;;;;3.55;2.28;;;32.50;34.50;;;;;;6274157;28;20242;-67
2022/07/20 09:58:31;;;;;;;3.35;2.58;;;32.60;33.10;;;;;;6274380;28;20250;-67
2022/07/20 10:01:36;;;;;;;3.30;2.70;;;32.70;34.70;;;;;;6274904;28;20270;-68
2022/07/20 10:04:41;;;;;;;3.22;2.45;;;32.80;36.60;;;;;;6274442;28;20227;-67
2022/07/20 10:07:46;;;;;;;3.35;2.30;;;32.90;35.20;;;;;;6277304;28;20251;-68
2022/07/20 10:10:49;;;;;;;4.78;2.63;;;32.80;34.80;;;;;;6275912;28;20241;-67
2022/07/20 10:13:54;;;;;;;2.38;2.00;;;33.00;34.70;;;;;;6275302;28;20308;-68
2022/07/20 10:16:58;;;;;;;2.83;2.15;;;33.10;32.40;;;;;;6281087;28;20244;-67
2022/07/20 10:20:02;;;;;;;2.85;2.28;;;33.20;33.80;;;;;;6273922;28;20654;-68
2022/07/20 10:23:39;;;;;;;3.50;2.10;;;33.20;33.00;;;;;;6274064;28;20235;-68
2022/07/20 10:26:42;;;;;;;2.90;2.03;;;33.40;33.80;;;;;;6269676;28;20249;-67
2022/07/20 10:29:47;;;;;;;2.63;2.20;;;33.30;35.30;;;;;;6277985;28;20337;-66
2022/07/20 10:32:53;;;;;;;4.30;2.25;;;33.30;33.60;;;;;;6277997;28;20223;-73
2022/07/20 10:39:46;;;;;;;2.40;2.20;;;33.30;32.20;;;;;;6252335;28;20281;-67
2022/07/20 10:42:51;;;;;;;4.78;2.33;;;33.30;32.30;;;;;;6269077;28;20250;-68
2022/07/20 10:45:54;;;;;;;3.58;1.95;;;33.20;32.20;;;;;;6291290;28;20562;-68
2022/07/20 10:48:57;;;;;;;5.40;2.00;;;33.20;32.10;;;;;;6301091;28;20309;-67
2022/07/20 10:52:30;;;;;;;2.30;2.03;;;33.30;32.20;;;;;;6237915;28;20641;-68
2022/07/20 10:55:55;;;;;;;3.42;1.90;;;33.10;31.90;;;;;;6242215;28;20236;-68
2022/07/20 10:59:02;;;;;;;3.65;2.70;;;33.20;31.80;;;;;;6250524;28;20658;-69
2022/07/20 11:02:10;;;;;;;2.20;2.00;;;33.20;31.50;;;;;;6252934;28;20228;-67
2022/07/20 11:05:21;;;;;;;2.75;1.95;;;33.20;31.90;;;;;;6252289;28;20230;-68
2022/07/20 11:08:26;;;;;;;5.90;2.70;;;33.00;31.60;;;;;;6250885;28;20270;-67
2022/07/20 11:11:33;;;;;;;3.92;2.10;;;32.90;32.40;;;;;;6252430;28;20683;-67
2022/07/20 11:14:52;;;;;;;3.47;2.67;;;32.90;32.20;;;;;;6249623;28;20235;-68
2022/07/20 11:17:56;;;;;;;6.38;2.42;;;32.80;33.20;;;;;;6249718;28;20296;-66
2022/07/20 11:21:01;;;;;;;3.65;2.60;;;33.00;33.50;;;;;;6251879;28;20230;-68
2022/07/20 11:24:06;;;;;;;2.72;2.53;;;33.10;33.40;;;;;;6252424;28;20219;-67
2022/07/20 11:27:14;;;;;;;4.32;2.08;;;33.20;33.70;;;;;;6251769;28;20338;-68
2022/07/20 11:30:17;;;;;;;5.15;2.45;;;33.30;32.90;;;;;;6249782;28;20239;-67
2022/07/20 11:33:28;;;;;;;2.92;2.35;;;33.10;32.70;;;;;;6252071;28;20220;-66
2022/07/20 11:36:34;;;;;;;3.70;2.05;;;33.00;32.00;;;;;;6252616;28;20237;-69
2022/07/20 11:39:39;;;;;;;3.10;2.70;;;32.90;32.30;;;;;;6251595;28;20232;-71
2022/07/20 11:42:42;;;;;;;2.70;2.50;;;33.00;32.60;;;;;;6252536;28;20653;-70
2022/07/20 11:45:45;;;;;;;3.17;2.08;;;33.00;32.10;;;;;;6252270;28;20579;-68
2022/07/20 11:48:54;;;;;;;3.97;1.95;;;33.00;31.10;;;;;;6252383;28;20251;-68
2022/07/20 11:52:17;;;;;;;3.67;2.40;;;33.10;31.30;;;;;;6272559;28;20235;-70
2022/07/20 11:55:35;;;;;;;2.33;2.13;;;33.20;31.50;;;;;;6277635;28;20235;-67
2022/07/20 11:58:40;;;;;;;3.08;2.70;;;33.40;31.60;;;;;;6277567;28;20231;-67
2022/07/20 12:01:44;;;;;;;4.82;2.35;;;33.50;31.30;;;;;;6294003;28;20245;-66
2022/07/20 12:04:47;;;;;;;3.35;2.70;;;33.40;31.80;;;;;;6289811;28;20218;-67
2022/07/20 12:08:09;;;;;;;2.75;2.55;;;33.00;32.10;;;;;;6275996;28;20238;-68
2022/07/20 12:11:14;;;;;;;2.53;2.33;;;33.00;32.80;;;;;;6277872;28;20567;-66
2022/07/20 12:14:28;;;;;;;3.22;2.97;;;33.20;33.20;;;;;;6272964;28;20231;-66
2022/07/20 12:17:53;;;;;;;4.05;3.65;;;33.30;33.20;;;;;;6275252;28;20215;-66
2022/07/20 12:21:01;;;;;;;3.15;2.92;;;33.20;34.00;;;;;;6275486;28;20235;-67
2022/07/20 12:24:05;;;;;;;4.28;3.22;;;33.30;34.50;;;;;;6276298;28;20227;-67
2022/07/20 12:27:10;;;;;;;2.80;2.60;;;33.40;34.40;;;;;;6275628;28;20249;-67
2022/07/20 12:30:28;;;;;;;3.53;2.45;;;33.50;34.50;;;;;;6275468;28;20239;-67
2022/07/20 12:33:31;;;;;;;3.05;2.45;;;33.40;34.30;;;;;;6275517;28;20235;-68
2022/07/20 12:36:36;;;;;;;3.03;2.58;;;33.30;34.90;;;;;;6275160;28;20314;-67
2022/07/20 12:39:41;;;;;;;4.88;2.70;;;33.30;35.00;;;;;;6275397;28;20227;-67
2022/07/20 12:42:46;;;;;;;2.53;2.28;;;33.20;35.00;;;;;;6274928;28;20665;-68
2022/07/20 12:45:49;;;;;;;3.17;2.40;;;33.10;35.60;;;;;;6275044;28;20234;-67
2022/07/20 12:48:52;;;;;;;5.28;2.72;;;33.10;35.70;;;;;;6275301;28;20227;-67
2022/07/20 12:51:57;;;;;;;3.50;3.20;;;32.80;36.10;;;;;;6278814;28;20695;-67
2022/07/20 12:55:00;;;;;;;3.13;2.83;;;32.80;35.80;;;;;;6272153;28;20222;-68
2022/07/20 12:58:07;;;;;;;5.20;2.50;;;32.90;35.20;;;;;;6274619;28;20226;-67
2022/07/20 13:01:10;;;;;;;2.80;2.60;;;33.10;35.10;;;;;;6286801;28;20229;-67
2022/07/20 13:04:13;;;;;;;5.30;2.72;;;33.30;35.30;;;;;;6289789;28;20329;-67
2022/07/20 13:07:17;;;;;;;4.43;2.78;;;33.30;35.20;;;;;;6274293;28;20465;-67
2022/07/20 13:10:20;;;;;;;3.17;2.95;;;33.30;35.50;;;;;;6273923;28;20253;-68
2022/07/20 13:13:24;;;;;;;3.08;2.72;;;33.40;34.50;;;;;;6273186;28;20235;-68
2022/07/20 13:16:27;;;;;;;3.58;3.17;;;33.50;34.80;;;;;;6274656;28;20695;-68
2022/07/20 13:19:31;;;;;;;4.65;2.80;;;33.50;34.40;;;;;;6274320;28;20227;-68
2022/07/20 13:22:34;;;;;;;4.55;2.85;;;33.30;35.30;;;;;;6274433;28;20239;-68
2022/07/20 13:25:38;;;;;;;5.63;3.10;;;33.30;36.20;;;;;;6275130;28;20238;-68
2022/07/20 13:28:42;;;;;;;6.88;2.80;;;33.30;36.00;;;;;;6290634;28;20242;-67
2022/07/20 13:31:45;;;;;;;3.38;3.10;;;33.20;36.30;;;;;;6299281;28;20233;-68
2022/07/20 13:34:53;;;;;;;3.42;3.05;;;32.90;36.60;;;;;;6275696;28;20227;-68
2022/07/20 13:37:57;;;;;;;3.15;2.75;;;32.80;36.80;;;;;;6273998;28;20223;-67
2022/07/20 13:41:00;;;;;;;3.05;2.70;;;32.50;36.30;;;;;;6274001;28;20227;-67
2022/07/20 13:44:06;;;;;;;5.47;3.30;;;32.50;36.60;;;;;;6274024;28;20572;-67
2022/07/20 13:47:09;;;;;;;2.95;2.55;;;32.60;36.40;;;;;;6274277;28;20337;-67
2022/07/20 13:50:13;;;;;;;2.88;2.47;;;32.60;36.20;;;;;;6271879;28;20242;-68
2022/07/20 13:53:16;;;;;;;3.55;3.25;;;32.60;36.20;;;;;;6271151;28;20219;-68
2022/07/20 13:56:19;;;;;;;3.45;2.70;;;32.60;36.70;;;;;;6272457;28;20244;-68
2022/07/20 13:59:24;;;;;;;3.38;3.00;;;32.70;36.90;;;;;;6262425;28;20249;-68
2022/07/20 14:02:27;;;;;;;4.50;2.88;;;32.80;36.80;;;;;;6273713;28;20235;-68
2022/07/20 14:05:31;;;;;;;3.28;2.97;;;32.70;37.00;;;;;;6279210;28;20288;-68
2022/07/20 14:08:34;;;;;;;4.68;3.15;;;32.60;38.00;;;;;;6278378;28;20234;-65
2022/07/20 14:11:38;;;;;;;3.05;2.65;;;32.60;37.50;;;;;;6279336;28;20234;-65
2022/07/20 14:14:43;;;;;;;3.40;2.42;;;32.60;37.40;;;;;;6278523;28;20223;-65
2022/07/20 14:17:46;;;;;;;3.35;2.95;;;32.40;38.10;;;;;;6277762;28;20238;-65
2022/07/20 14:20:50;;;;;;;4.28;2.75;;;32.40;37.60;;;;;;6277181;28;20237;-66
2022/07/20 14:24:13;;;;;;;3.55;3.05;;;32.40;37.30;;;;;;6278677;28;20242;-65
2022/07/20 14:27:16;;;;;;;3.58;3.28;;;32.40;37.60;;;;;;6278120;28;20719;-65
2022/07/20 14:30:20;;;;;;;4.20;2.97;;;32.40;37.40;;;;;;6278022;28;20673;-65
2022/07/20 14:33:23;;;;;;;3.55;3.25;;;32.50;37.60;;;;;;6278135;28;20230;-65
2022/07/20 14:36:27;;;;;;;2.95;2.40;;;32.60;37.80;;;;;;6278335;28;20545;-65
2022/07/20 14:39:30;;;;;;;2.60;2.40;;;32.60;37.80;;;;;;6277555;28;20235;-65
2022/07/20 14:42:33;;;;;;;4.28;3.30;;;32.70;38.30;;;;;;6277559;28;20227;-65
2022/07/20 14:45:38;;;;;;;4.25;3.25;;;32.60;38.30;;;;;;6277989;28;20576;-65
2022/07/20 14:48:42;;;;;;;3.95;3.10;;;32.60;38.40;;;;;;6277726;28;20292;-65
2022/07/20 14:51:45;;;;;;;3.40;3.10;;;32.60;38.20;;;;;;6278412;28;20219;-65
2022/07/20 14:54:48;;;;;;;4.28;3.78;;;32.40;38.10;;;;;;6277671;28;20231;-65
2022/07/20 14:57:52;;;;;;;3.22;3.00;;;32.60;38.20;;;;;;6277507;28;20223;-65
2022/07/20 15:00:57;;;;;;;3.10;2.88;;;32.60;38.40;;;;;;6277635;28;20275;-65
2022/07/20 15:04:00;;;;;;;8.88;3.63;;;32.70;38.30;;;;;;6268385;28;20247;-65
2022/07/20 15:07:03;;;;;;;3.70;3.25;;;32.80;38.40;;;;;;6276416;28;20227;-65
2022/07/20 15:10:08;;;;;;;3.55;3.25;;;32.90;38.10;;;;;;6278787;28;20223;-65
2022/07/20 15:13:11;;;;;;;3.25;3.00;;;33.00;37.70;;;;;;6277851;28;20200;-64
2022/07/20 15:16:16;;;;;;;4.57;3.67;;;33.00;37.70;;;;;;6276162;28;20204;-64
2022/07/20 15:19:19;;;;;;;3.53;3.22;;;33.00;37.70;;;;;;6274375;28;20376;-65
2022/07/20 15:22:22;;;;;;;3.47;3.13;;;33.10;37.70;;;;;;6274980;28;20233;-65
2022/07/20 15:25:25;;;;;;;3.58;3.28;;;32.90;37.30;;;;;;6275223;28;20245;-65
2022/07/20 15:28:28;;;;;;;3.60;3.30;;;32.70;37.80;;;;;;6275014;28;20231;-68
2022/07/20 15:31:33;;;;;;;7.78;3.97;;;32.70;37.50;;;;;;6275303;28;20231;-69
2022/07/20 15:34:56;;;;;;;3.20;3.00;;;32.80;37.50;;;;;;6256390;28;20236;-68
2022/07/20 15:38:00;;;;;;;4.07;3.78;;;32.80;37.10;;;;;;6250689;28;20235;-68
2022/07/20 15:41:04;;;;;;;3.63;3.20;;;32.80;37.10;;;;;;6251217;28;20273;-68
2022/07/20 15:44:07;;;;;;;4.10;3.08;;;32.60;37.20;;;;;;6251364;28;20235;-69
2022/07/20 15:47:13;;;;;;;3.80;2.88;;;32.80;36.90;;;;;;6264844;28;20334;-69
2022/07/20 15:50:17;;;;;;;3.40;3.10;;;32.80;37.00;;;;;;6275694;28;20231;-69
2022/07/20 15:53:21;;;;;;;2.80;2.60;;;32.60;37.10;;;;;;6275581;28;20227;-69
2022/07/20 15:57:18;;;;;;;3.63;3.28;;;32.40;37.00;;;;;;6275856;28;20231;-69
2022/07/20 15:59:49;;;;;;;3.65;3.25;;;32.60;37.20;;;;;;6275300;28;20243;-68
2022/07/20 16:02:53;;;;;;;4.95;3.60;;;32.70;37.10;;;;;;6274756;28;20237;-68
2022/07/20 16:05:56;;;;;;;3.72;3.15;;;32.90;37.20;;;;;;6270500;28;20538;-69
2022/07/20 16:09:00;;;;;;;4.28;2.97;;;32.80;37.10;;;;;;6275588;28;20823;-68